sensor_id;sensor_type;location;lat;lon;timestamp;P1;durP1;ratioP1;P2;durP2;ratioP2
22320;SDS011;11328;53.928;18.522;2023-12-07T00:00:04;64.97;;;29.33;;
22320;SDS011;11328;53.928;18.522;2023-12-07T00:02:32;67.25;;;30.85;;
22320;SDS011;11328;53.928;18.522;2023-12-07T00:04:59;67.75;;;29.50;;
22320;SDS011;11328;53.928;18.522;2023-12-07T00:07:26;67.05;;;30.08;;
22320;SDS011;11328;53.928;18.522;2023-12-07T00:09:53;65.45;;;30.05;;
22320;SDS011;11328;53.928;18.522;2023-12-07T00:12:20;67.35;;;30.33;;
22320;SDS011;11328;53.928;18.522;2023-12-07T00:14:48;57.78;;;28.05;;
22320;SDS011;11328;53.928;18.522;2023-12-07T00:17:15;69.93;;;30.42;;
22320;SDS011;11328;53.928;18.522;2023-12-07T00:19:42;67.80;;;30.98;;
22320;SDS011;11328;53.928;18.522;2023-12-07T00:22:09;64.88;;;29.65;;
22320;SDS011;11328;53.928;18.522;2023-12-07T00:24:36;63.13;;;29.20;;
22320;SDS011;11328;53.928;18.522;2023-12-07T00:27:03;69.50;;;31.23;;
22320;SDS011;11328;53.928;18.522;2023-12-07T00:29:31;67.88;;;30.45;;
22320;SDS011;11328;53.928;18.522;2023-12-07T00:31:58;72.32;;;30.10;;
22320;SDS011;11328;53.928;18.522;2023-12-07T00:34:26;68.93;;;31.25;;
22320;SDS011;11328;53.928;18.522;2023-12-07T00:36:53;61.53;;;29.30;;
22320;SDS011;11328;53.928;18.522;2023-12-07T00:39:20;65.53;;;29.50;;
22320;SDS011;11328;53.928;18.522;2023-12-07T00:41:47;69.63;;;29.48;;
22320;SDS011;11328;53.928;18.522;2023-12-07T00:44:15;69.55;;;29.92;;
22320;SDS011;11328;53.928;18.522;2023-12-07T00:46:42;65.93;;;29.25;;
22320;SDS011;11328;53.928;18.522;2023-12-07T00:49:09;64.05;;;30.02;;
22320;SDS011;11328;53.928;18.522;2023-12-07T00:51:36;68.65;;;30.95;;
22320;SDS011;11328;53.928;18.522;2023-12-07T00:54:04;65.30;;;29.80;;
22320;SDS011;11328;53.928;18.522;2023-12-07T00:56:31;68.18;;;30.27;;
22320;SDS011;11328;53.928;18.522;2023-12-07T00:58:58;69.43;;;31.20;;
22320;SDS011;11328;53.928;18.522;2023-12-07T01:01:25;66.40;;;28.85;;
22320;SDS011;11328;53.928;18.522;2023-12-07T01:03:54;64.13;;;29.65;;
22320;SDS011;11328;53.928;18.522;2023-12-07T01:06:21;63.40;;;29.67;;
22320;SDS011;11328;53.928;18.522;2023-12-07T01:08:49;67.57;;;30.40;;
22320;SDS011;11328;53.928;18.522;2023-12-07T01:11:16;68.25;;;30.73;;
22320;SDS011;11328;53.928;18.522;2023-12-07T01:13:43;64.57;;;29.02;;
22320;SDS011;11328;53.928;18.522;2023-12-07T01:16:10;66.38;;;30.17;;
22320;SDS011;11328;53.928;18.522;2023-12-07T01:18:37;68.78;;;30.52;;
22320;SDS011;11328;53.928;18.522;2023-12-07T01:21:04;65.18;;;29.35;;
22320;SDS011;11328;53.928;18.522;2023-12-07T01:23:32;65.57;;;30.33;;
22320;SDS011;11328;53.928;18.522;2023-12-07T01:25:59;66.45;;;28.42;;
22320;SDS011;11328;53.928;18.522;2023-12-07T01:28:29;62.55;;;29.10;;
22320;SDS011;11328;53.928;18.522;2023-12-07T01:30:56;70.25;;;29.60;;
22320;SDS011;11328;53.928;18.522;2023-12-07T01:33:23;63.70;;;28.90;;
22320;SDS011;11328;53.928;18.522;2023-12-07T01:35:50;68.45;;;29.92;;
22320;SDS011;11328;53.928;18.522;2023-12-07T01:38:18;65.95;;;30.33;;
22320;SDS011;11328;53.928;18.522;2023-12-07T01:40:45;66.80;;;30.48;;
22320;SDS011;11328;53.928;18.522;2023-12-07T01:43:13;65.20;;;30.23;;
22320;SDS011;11328;53.928;18.522;2023-12-07T01:45:40;69.40;;;29.92;;
22320;SDS011;11328;53.928;18.522;2023-12-07T01:48:08;69.95;;;30.25;;
22320;SDS011;11328;53.928;18.522;2023-12-07T01:50:35;68.25;;;30.02;;
22320;SDS011;11328;53.928;18.522;2023-12-07T01:53:02;71.75;;;30.08;;
22320;SDS011;11328;53.928;18.522;2023-12-07T01:55:34;66.25;;;29.25;;
22320;SDS011;11328;53.928;18.522;2023-12-07T01:58:03;65.20;;;28.95;;
22320;SDS011;11328;53.928;18.522;2023-12-07T02:00:31;65.28;;;28.80;;
22320;SDS011;11328;53.928;18.522;2023-12-07T02:03:00;69.65;;;29.67;;
22320;SDS011;11328;53.928;18.522;2023-12-07T02:05:31;62.28;;;29.50;;
22320;SDS011;11328;53.928;18.522;2023-12-07T02:07:59;63.97;;;29.40;;
22320;SDS011;11328;53.928;18.522;2023-12-07T02:10:26;64.03;;;28.77;;
22320;SDS011;11328;53.928;18.522;2023-12-07T02:12:53;66.80;;;29.15;;
22320;SDS011;11328;53.928;18.522;2023-12-07T02:15:21;62.67;;;28.45;;
22320;SDS011;11328;53.928;18.522;2023-12-07T02:23:56;63.97;;;29.08;;
22320;SDS011;11328;53.928;18.522;2023-12-07T02:26:34;65.60;;;29.02;;
22320;SDS011;11328;53.928;18.522;2023-12-07T02:29:02;70.70;;;29.27;;
22320;SDS011;11328;53.928;18.522;2023-12-07T02:31:29;71.25;;;30.60;;
22320;SDS011;11328;53.928;18.522;2023-12-07T02:33:57;71.10;;;30.10;;
22320;SDS011;11328;53.928;18.522;2023-12-07T02:36:25;69.40;;;29.73;;
22320;SDS011;11328;53.928;18.522;2023-12-07T02:38:56;64.13;;;29.83;;
22320;SDS011;11328;53.928;18.522;2023-12-07T02:41:27;64.15;;;28.08;;
22320;SDS011;11328;53.928;18.522;2023-12-07T02:43:58;69.70;;;30.15;;
22320;SDS011;11328;53.928;18.522;2023-12-07T02:46:25;68.75;;;30.67;;
22320;SDS011;11328;53.928;18.522;2023-12-07T02:48:54;71.30;;;29.60;;
22320;SDS011;11328;53.928;18.522;2023-12-07T02:51:23;72.35;;;31.25;;
22320;SDS011;11328;53.928;18.522;2023-12-07T02:53:50;71.70;;;31.75;;
22320;SDS011;11328;53.928;18.522;2023-12-07T02:56:17;74.78;;;30.65;;
22320;SDS011;11328;53.928;18.522;2023-12-07T02:58:44;67.68;;;29.70;;
22320;SDS011;11328;53.928;18.522;2023-12-07T03:01:11;72.93;;;30.50;;
22320;SDS011;11328;53.928;18.522;2023-12-07T03:03:38;71.20;;;30.92;;
22320;SDS011;11328;53.928;18.522;2023-12-07T03:06:07;66.68;;;29.35;;
22320;SDS011;11328;53.928;18.522;2023-12-07T03:08:34;73.82;;;31.27;;
22320;SDS011;11328;53.928;18.522;2023-12-07T03:11:01;70.13;;;30.63;;
22320;SDS011;11328;53.928;18.522;2023-12-07T03:13:28;67.03;;;30.50;;
22320;SDS011;11328;53.928;18.522;2023-12-07T03:15:55;70.80;;;31.67;;
22320;SDS011;11328;53.928;18.522;2023-12-07T03:18:22;69.00;;;30.70;;
22320;SDS011;11328;53.928;18.522;2023-12-07T03:20:51;70.22;;;30.50;;
22320;SDS011;11328;53.928;18.522;2023-12-07T03:23:18;73.32;;;31.77;;
22320;SDS011;11328;53.928;18.522;2023-12-07T03:25:45;69.20;;;30.73;;
22320;SDS011;11328;53.928;18.522;2023-12-07T03:28:12;72.15;;;31.50;;
22320;SDS011;11328;53.928;18.522;2023-12-07T03:30:39;74.30;;;31.40;;
22320;SDS011;11328;53.928;18.522;2023-12-07T03:33:06;70.47;;;31.08;;
22320;SDS011;11328;53.928;18.522;2023-12-07T03:35:33;73.80;;;30.92;;
22320;SDS011;11328;53.928;18.522;2023-12-07T03:38:00;66.10;;;30.05;;
22320;SDS011;11328;53.928;18.522;2023-12-07T03:40:28;68.82;;;30.17;;
22320;SDS011;11328;53.928;18.522;2023-12-07T03:42:55;65.72;;;29.45;;
22320;SDS011;11328;53.928;18.522;2023-12-07T03:45:22;68.03;;;29.92;;
22320;SDS011;11328;53.928;18.522;2023-12-07T03:47:50;70.45;;;30.73;;
22320;SDS011;11328;53.928;18.522;2023-12-07T03:50:17;72.63;;;30.52;;
22320;SDS011;11328;53.928;18.522;2023-12-07T03:52:44;65.43;;;29.42;;
22320;SDS011;11328;53.928;18.522;2023-12-07T03:55:11;70.30;;;30.88;;
22320;SDS011;11328;53.928;18.522;2023-12-07T03:57:38;68.68;;;29.40;;
22320;SDS011;11328;53.928;18.522;2023-12-07T04:00:06;69.28;;;29.80;;
22320;SDS011;11328;53.928;18.522;2023-12-07T04:02:34;66.80;;;29.80;;
22320;SDS011;11328;53.928;18.522;2023-12-07T04:05:01;66.68;;;29.23;;
22320;SDS011;11328;53.928;18.522;2023-12-07T04:07:29;63.47;;;28.58;;
22320;SDS011;11328;53.928;18.522;2023-12-07T04:09:56;68.38;;;29.50;;
22320;SDS011;11328;53.928;18.522;2023-12-07T04:12:26;66.50;;;29.00;;
22320;SDS011;11328;53.928;18.522;2023-12-07T04:14:53;69.28;;;29.77;;
22320;SDS011;11328;53.928;18.522;2023-12-07T04:17:20;64.15;;;29.35;;
22320;SDS011;11328;53.928;18.522;2023-12-07T04:19:48;71.30;;;30.25;;
22320;SDS011;11328;53.928;18.522;2023-12-07T04:22:15;68.60;;;29.63;;
22320;SDS011;11328;53.928;18.522;2023-12-07T04:24:42;67.82;;;29.58;;
22320;SDS011;11328;53.928;18.522;2023-12-07T04:27:10;75.93;;;29.73;;
22320;SDS011;11328;53.928;18.522;2023-12-07T04:29:37;68.90;;;28.17;;
22320;SDS011;11328;53.928;18.522;2023-12-07T04:32:05;66.30;;;29.30;;
22320;SDS011;11328;53.928;18.522;2023-12-07T04:34:34;70.60;;;30.45;;
22320;SDS011;11328;53.928;18.522;2023-12-07T04:37:01;68.97;;;29.38;;
22320;SDS011;11328;53.928;18.522;2023-12-07T04:39:28;65.97;;;27.33;;
22320;SDS011;11328;53.928;18.522;2023-12-07T04:41:56;65.70;;;28.63;;
22320;SDS011;11328;53.928;18.522;2023-12-07T04:44:23;67.95;;;28.98;;
22320;SDS011;11328;53.928;18.522;2023-12-07T04:46:51;65.30;;;28.67;;
22320;SDS011;11328;53.928;18.522;2023-12-07T04:49:19;63.78;;;28.70;;
22320;SDS011;11328;53.928;18.522;2023-12-07T04:51:46;68.55;;;29.00;;
22320;SDS011;11328;53.928;18.522;2023-12-07T04:54:13;65.43;;;28.38;;
22320;SDS011;11328;53.928;18.522;2023-12-07T04:56:45;69.00;;;28.80;;
22320;SDS011;11328;53.928;18.522;2023-12-07T04:59:13;68.07;;;29.10;;
22320;SDS011;11328;53.928;18.522;2023-12-07T05:01:40;70.22;;;28.50;;
22320;SDS011;11328;53.928;18.522;2023-12-07T05:04:07;68.00;;;28.63;;
22320;SDS011;11328;53.928;18.522;2023-12-07T05:06:34;69.43;;;29.00;;
22320;SDS011;11328;53.928;18.522;2023-12-07T05:09:02;69.93;;;28.48;;
22320;SDS011;11328;53.928;18.522;2023-12-07T05:11:29;72.95;;;29.63;;
22320;SDS011;11328;53.928;18.522;2023-12-07T05:13:56;67.75;;;28.92;;
22320;SDS011;11328;53.928;18.522;2023-12-07T05:16:24;67.65;;;28.35;;
22320;SDS011;11328;53.928;18.522;2023-12-07T05:18:51;71.32;;;28.98;;
22320;SDS011;11328;53.928;18.522;2023-12-07T05:21:18;71.88;;;30.25;;
22320;SDS011;11328;53.928;18.522;2023-12-07T05:23:46;69.57;;;29.77;;
22320;SDS011;11328;53.928;18.522;2023-12-07T05:26:13;72.10;;;29.13;;
22320;SDS011;11328;53.928;18.522;2023-12-07T05:28:41;65.72;;;28.05;;
22320;SDS011;11328;53.928;18.522;2023-12-07T05:31:08;64.20;;;27.65;;
22320;SDS011;11328;53.928;18.522;2023-12-07T05:33:35;71.15;;;29.13;;
22320;SDS011;11328;53.928;18.522;2023-12-07T05:36:02;70.65;;;30.15;;
22320;SDS011;11328;53.928;18.522;2023-12-07T05:38:30;65.13;;;28.45;;
22320;SDS011;11328;53.928;18.522;2023-12-07T05:40:57;71.75;;;30.08;;
22320;SDS011;11328;53.928;18.522;2023-12-07T05:43:24;75.50;;;31.52;;
22320;SDS011;11328;53.928;18.522;2023-12-07T05:45:52;71.03;;;29.77;;
22320;SDS011;11328;53.928;18.522;2023-12-07T05:48:19;74.95;;;30.52;;
22320;SDS011;11328;53.928;18.522;2023-12-07T05:50:46;74.72;;;29.92;;
22320;SDS011;11328;53.928;18.522;2023-12-07T05:53:13;67.70;;;29.88;;
22320;SDS011;11328;53.928;18.522;2023-12-07T05:55:40;74.18;;;31.45;;
22320;SDS011;11328;53.928;18.522;2023-12-07T05:58:08;73.95;;;30.27;;
22320;SDS011;11328;53.928;18.522;2023-12-07T06:00:35;72.85;;;29.73;;
22320;SDS011;11328;53.928;18.522;2023-12-07T06:03:04;75.57;;;29.75;;
22320;SDS011;11328;53.928;18.522;2023-12-07T06:05:31;74.82;;;30.05;;
22320;SDS011;11328;53.928;18.522;2023-12-07T06:07:58;77.05;;;31.08;;
22320;SDS011;11328;53.928;18.522;2023-12-07T06:10:28;71.88;;;31.23;;
22320;SDS011;11328;53.928;18.522;2023-12-07T06:12:56;73.95;;;30.25;;
22320;SDS011;11328;53.928;18.522;2023-12-07T06:15:27;74.22;;;30.10;;
22320;SDS011;11328;53.928;18.522;2023-12-07T06:17:54;78.05;;;31.05;;
22320;SDS011;11328;53.928;18.522;2023-12-07T06:20:21;77.35;;;30.75;;
22320;SDS011;11328;53.928;18.522;2023-12-07T06:22:48;78.35;;;30.95;;
22320;SDS011;11328;53.928;18.522;2023-12-07T06:25:15;70.93;;;28.90;;
22320;SDS011;11328;53.928;18.522;2023-12-07T06:27:43;74.57;;;31.55;;
22320;SDS011;11328;53.928;18.522;2023-12-07T06:30:10;80.20;;;31.88;;
22320;SDS011;11328;53.928;18.522;2023-12-07T06:32:38;76.40;;;31.10;;
22320;SDS011;11328;53.928;18.522;2023-12-07T06:35:05;74.03;;;29.70;;
22320;SDS011;11328;53.928;18.522;2023-12-07T06:37:33;71.75;;;30.63;;
22320;SDS011;11328;53.928;18.522;2023-12-07T06:40:00;70.63;;;29.80;;
22320;SDS011;11328;53.928;18.522;2023-12-07T06:42:28;79.47;;;32.38;;
22320;SDS011;11328;53.928;18.522;2023-12-07T06:44:55;74.22;;;30.25;;
22320;SDS011;11328;53.928;18.522;2023-12-07T06:47:22;73.97;;;29.42;;
22320;SDS011;11328;53.928;18.522;2023-12-07T06:49:50;75.78;;;31.15;;
22320;SDS011;11328;53.928;18.522;2023-12-07T06:52:18;74.45;;;30.98;;
22320;SDS011;11328;53.928;18.522;2023-12-07T06:54:46;81.57;;;32.33;;
22320;SDS011;11328;53.928;18.522;2023-12-07T06:57:13;77.47;;;30.10;;
22320;SDS011;11328;53.928;18.522;2023-12-07T06:59:40;75.07;;;31.88;;
22320;SDS011;11328;53.928;18.522;2023-12-07T07:02:07;80.97;;;30.15;;
22320;SDS011;11328;53.928;18.522;2023-12-07T07:04:34;73.90;;;30.73;;
22320;SDS011;11328;53.928;18.522;2023-12-07T07:07:02;74.88;;;30.95;;
22320;SDS011;11328;53.928;18.522;2023-12-07T07:09:29;73.18;;;30.58;;
22320;SDS011;11328;53.928;18.522;2023-12-07T07:11:56;73.22;;;29.98;;
22320;SDS011;11328;53.928;18.522;2023-12-07T07:14:23;76.15;;;31.25;;
22320;SDS011;11328;53.928;18.522;2023-12-07T07:16:50;73.88;;;30.20;;
22320;SDS011;11328;53.928;18.522;2023-12-07T07:19:18;75.07;;;32.15;;
22320;SDS011;11328;53.928;18.522;2023-12-07T07:21:45;78.32;;;30.85;;
22320;SDS011;11328;53.928;18.522;2023-12-07T07:24:12;76.30;;;31.42;;
22320;SDS011;11328;53.928;18.522;2023-12-07T07:26:40;82.60;;;30.80;;
22320;SDS011;11328;53.928;18.522;2023-12-07T07:29:08;77.13;;;31.75;;
22320;SDS011;11328;53.928;18.522;2023-12-07T07:31:35;78.80;;;33.58;;
22320;SDS011;11328;53.928;18.522;2023-12-07T07:34:02;78.78;;;31.55;;
22320;SDS011;11328;53.928;18.522;2023-12-07T07:36:31;77.85;;;32.40;;
22320;SDS011;11328;53.928;18.522;2023-12-07T07:38:58;77.88;;;32.28;;
22320;SDS011;11328;53.928;18.522;2023-12-07T07:41:25;80.10;;;33.08;;
22320;SDS011;11328;53.928;18.522;2023-12-07T07:43:52;75.15;;;32.97;;
22320;SDS011;11328;53.928;18.522;2023-12-07T07:46:19;75.90;;;33.22;;
22320;SDS011;11328;53.928;18.522;2023-12-07T07:48:46;75.53;;;31.00;;
22320;SDS011;11328;53.928;18.522;2023-12-07T07:51:14;79.38;;;31.67;;
22320;SDS011;11328;53.928;18.522;2023-12-07T07:53:41;80.47;;;32.05;;
22320;SDS011;11328;53.928;18.522;2023-12-07T07:56:08;75.97;;;31.60;;
22320;SDS011;11328;53.928;18.522;2023-12-07T07:58:36;76.25;;;31.10;;
22320;SDS011;11328;53.928;18.522;2023-12-07T08:01:03;72.68;;;30.65;;
22320;SDS011;11328;53.928;18.522;2023-12-07T08:03:31;75.43;;;30.45;;
22320;SDS011;11328;53.928;18.522;2023-12-07T08:05:58;76.65;;;30.17;;
22320;SDS011;11328;53.928;18.522;2023-12-07T08:08:25;74.93;;;31.92;;
22320;SDS011;11328;53.928;18.522;2023-12-07T08:10:52;72.55;;;31.95;;
22320;SDS011;11328;53.928;18.522;2023-12-07T08:13:22;77.80;;;32.15;;
22320;SDS011;11328;53.928;18.522;2023-12-07T08:15:49;74.40;;;31.63;;
22320;SDS011;11328;53.928;18.522;2023-12-07T08:18:20;76.53;;;32.00;;
22320;SDS011;11328;53.928;18.522;2023-12-07T08:20:48;79.65;;;33.05;;
22320;SDS011;11328;53.928;18.522;2023-12-07T08:23:16;78.22;;;32.50;;
22320;SDS011;11328;53.928;18.522;2023-12-07T08:25:43;70.93;;;31.65;;
22320;SDS011;11328;53.928;18.522;2023-12-07T08:28:10;71.60;;;32.00;;
22320;SDS011;11328;53.928;18.522;2023-12-07T08:30:37;67.70;;;29.48;;
22320;SDS011;11328;53.928;18.522;2023-12-07T08:33:04;67.63;;;30.35;;
22320;SDS011;11328;53.928;18.522;2023-12-07T08:35:31;71.43;;;30.60;;
22320;SDS011;11328;53.928;18.522;2023-12-07T08:37:58;71.72;;;31.17;;
22320;SDS011;11328;53.928;18.522;2023-12-07T08:40:26;68.70;;;30.20;;
22320;SDS011;11328;53.928;18.522;2023-12-07T08:42:54;66.05;;;28.92;;
22320;SDS011;11328;53.928;18.522;2023-12-07T08:45:21;70.43;;;29.77;;
22320;SDS011;11328;53.928;18.522;2023-12-07T08:47:50;68.05;;;29.75;;
22320;SDS011;11328;53.928;18.522;2023-12-07T08:50:17;68.20;;;30.08;;
22320;SDS011;11328;53.928;18.522;2023-12-07T08:52:44;63.97;;;29.20;;
22320;SDS011;11328;53.928;18.522;2023-12-07T08:55:21;63.28;;;28.30;;
22320;SDS011;11328;53.928;18.522;2023-12-07T08:57:48;61.28;;;27.60;;
22320;SDS011;11328;53.928;18.522;2023-12-07T09:00:16;69.70;;;29.65;;
22320;SDS011;11328;53.928;18.522;2023-12-07T09:02:43;69.28;;;29.27;;
22320;SDS011;11328;53.928;18.522;2023-12-07T09:05:14;67.10;;;30.55;;
22320;SDS011;11328;53.928;18.522;2023-12-07T09:07:41;65.05;;;30.35;;
22320;SDS011;11328;53.928;18.522;2023-12-07T09:10:09;65.28;;;30.10;;
22320;SDS011;11328;53.928;18.522;2023-12-07T09:12:37;73.40;;;32.05;;
22320;SDS011;11328;53.928;18.522;2023-12-07T09:15:05;69.57;;;30.70;;
22320;SDS011;11328;53.928;18.522;2023-12-07T09:17:34;73.57;;;31.83;;
22320;SDS011;11328;53.928;18.522;2023-12-07T09:20:04;67.75;;;30.27;;
22320;SDS011;11328;53.928;18.522;2023-12-07T09:22:42;67.38;;;31.00;;
22320;SDS011;11328;53.928;18.522;2023-12-07T09:25:11;65.00;;;30.33;;
22320;SDS011;11328;53.928;18.522;2023-12-07T09:27:39;69.85;;;31.65;;
22320;SDS011;11328;53.928;18.522;2023-12-07T09:30:07;66.32;;;31.40;;
22320;SDS011;11328;53.928;18.522;2023-12-07T09:32:38;65.38;;;31.95;;
22320;SDS011;11328;53.928;18.522;2023-12-07T09:35:07;70.22;;;32.25;;
22320;SDS011;11328;53.928;18.522;2023-12-07T09:37:46;57.78;;;29.45;;
22320;SDS011;11328;53.928;18.522;2023-12-07T09:40:20;65.75;;;30.08;;
22320;SDS011;11328;53.928;18.522;2023-12-07T09:42:51;63.35;;;30.45;;
22320;SDS011;11328;53.928;18.522;2023-12-07T09:45:18;69.32;;;31.80;;
22320;SDS011;11328;53.928;18.522;2023-12-07T09:47:48;66.05;;;30.35;;
22320;SDS011;11328;53.928;18.522;2023-12-07T09:50:20;63.97;;;29.92;;
22320;SDS011;11328;53.928;18.522;2023-12-07T09:52:50;65.68;;;30.90;;
22320;SDS011;11328;53.928;18.522;2023-12-07T09:55:33;65.50;;;30.17;;
22320;SDS011;11328;53.928;18.522;2023-12-07T09:58:06;66.28;;;31.45;;
22320;SDS011;11328;53.928;18.522;2023-12-07T10:00:35;67.53;;;31.50;;
22320;SDS011;11328;53.928;18.522;2023-12-07T10:03:05;72.63;;;30.48;;
22320;SDS011;11328;53.928;18.522;2023-12-07T10:05:55;65.67;;;29.77;;
22320;SDS011;11328;53.928;18.522;2023-12-07T10:08:26;62.45;;;30.10;;
22320;SDS011;11328;53.928;18.522;2023-12-07T10:11:04;66.00;;;31.63;;
22320;SDS011;11328;53.928;18.522;2023-12-07T10:13:37;68.18;;;32.28;;
22320;SDS011;11328;53.928;18.522;2023-12-07T10:16:05;59.50;;;28.63;;
22320;SDS011;11328;53.928;18.522;2023-12-07T10:18:41;60.10;;;29.23;;
22320;SDS011;11328;53.928;18.522;2023-12-07T10:21:10;63.45;;;31.35;;
22320;SDS011;11328;53.928;18.522;2023-12-07T10:23:40;68.40;;;33.50;;
22320;SDS011;11328;53.928;18.522;2023-12-07T10:26:15;66.78;;;32.75;;
22320;SDS011;11328;53.928;18.522;2023-12-07T10:28:47;70.20;;;32.90;;
22320;SDS011;11328;53.928;18.522;2023-12-07T10:31:20;68.93;;;31.83;;
22320;SDS011;11328;53.928;18.522;2023-12-07T10:33:51;66.55;;;33.38;;
22320;SDS011;11328;53.928;18.522;2023-12-07T10:36:19;67.95;;;31.23;;
22320;SDS011;11328;53.928;18.522;2023-12-07T10:38:46;68.35;;;32.53;;
22320;SDS011;11328;53.928;18.522;2023-12-07T10:41:18;65.00;;;32.25;;
22320;SDS011;11328;53.928;18.522;2023-12-07T10:43:54;64.97;;;30.70;;
22320;SDS011;11328;53.928;18.522;2023-12-07T10:46:27;66.55;;;30.67;;
22320;SDS011;11328;53.928;18.522;2023-12-07T10:49:03;66.57;;;31.05;;
22320;SDS011;11328;53.928;18.522;2023-12-07T10:52:00;69.95;;;32.15;;
22320;SDS011;11328;53.928;18.522;2023-12-07T10:54:43;66.00;;;29.52;;
22320;SDS011;11328;53.928;18.522;2023-12-07T10:57:30;68.32;;;31.52;;
22320;SDS011;11328;53.928;18.522;2023-12-07T11:00:00;59.80;;;28.55;;
22320;SDS011;11328;53.928;18.522;2023-12-07T11:02:28;59.75;;;28.85;;
22320;SDS011;11328;53.928;18.522;2023-12-07T11:04:59;60.63;;;29.77;;
22320;SDS011;11328;53.928;18.522;2023-12-07T11:07:32;57.65;;;27.98;;
22320;SDS011;11328;53.928;18.522;2023-12-07T11:10:23;59.38;;;29.85;;
22320;SDS011;11328;53.928;18.522;2023-12-07T11:13:08;63.13;;;28.73;;
22320;SDS011;11328;53.928;18.522;2023-12-07T11:15:56;59.42;;;29.25;;
22320;SDS011;11328;53.928;18.522;2023-12-07T11:18:24;69.28;;;36.72;;
22320;SDS011;11328;53.928;18.522;2023-12-07T11:20:54;62.05;;;28.88;;
22320;SDS011;11328;53.928;18.522;2023-12-07T11:23:22;59.50;;;28.65;;
22320;SDS011;11328;53.928;18.522;2023-12-07T11:25:51;59.50;;;28.23;;
22320;SDS011;11328;53.928;18.522;2023-12-07T11:28:34;63.10;;;28.65;;
22320;SDS011;11328;53.928;18.522;2023-12-07T11:31:08;61.70;;;28.25;;
22320;SDS011;11328;53.928;18.522;2023-12-07T11:33:38;60.88;;;30.40;;
22320;SDS011;11328;53.928;18.522;2023-12-07T11:36:10;61.05;;;29.58;;
22320;SDS011;11328;53.928;18.522;2023-12-07T11:41:29;63.30;;;29.13;;
22320;SDS011;11328;53.928;18.522;2023-12-07T11:43:59;102.50;;;46.30;;
22320;SDS011;11328;53.928;18.522;2023-12-07T11:46:26;76.72;;;36.22;;
22320;SDS011;11328;53.928;18.522;2023-12-07T11:48:53;69.40;;;33.72;;
22320;SDS011;11328;53.928;18.522;2023-12-07T11:51:21;69.70;;;34.53;;
22320;SDS011;11328;53.928;18.522;2023-12-07T11:53:48;62.38;;;30.33;;
22320;SDS011;11328;53.928;18.522;2023-12-07T11:56:16;70.13;;;35.60;;
22320;SDS011;11328;53.928;18.522;2023-12-07T11:58:47;60.47;;;29.90;;
22320;SDS011;11328;53.928;18.522;2023-12-07T12:01:16;62.80;;;29.88;;
22320;SDS011;11328;53.928;18.522;2023-12-07T12:03:44;62.65;;;30.48;;
22320;SDS011;11328;53.928;18.522;2023-12-07T12:06:11;57.83;;;30.17;;
22320;SDS011;11328;53.928;18.522;2023-12-07T12:08:40;66.13;;;32.70;;
22320;SDS011;11328;53.928;18.522;2023-12-07T12:11:08;60.03;;;30.08;;
22320;SDS011;11328;53.928;18.522;2023-12-07T12:13:35;57.95;;;30.42;;
22320;SDS011;11328;53.928;18.522;2023-12-07T12:16:03;60.70;;;29.95;;
22320;SDS011;11328;53.928;18.522;2023-12-07T12:18:33;57.17;;;30.70;;
22320;SDS011;11328;53.928;18.522;2023-12-07T12:21:02;58.95;;;29.73;;
22320;SDS011;11328;53.928;18.522;2023-12-07T12:23:29;59.53;;;28.75;;
22320;SDS011;11328;53.928;18.522;2023-12-07T12:25:56;58.05;;;29.45;;
22320;SDS011;11328;53.928;18.522;2023-12-07T12:28:25;59.35;;;30.88;;
22320;SDS011;11328;53.928;18.522;2023-12-07T12:30:52;57.88;;;30.15;;
22320;SDS011;11328;53.928;18.522;2023-12-07T12:33:21;62.88;;;30.00;;
22320;SDS011;11328;53.928;18.522;2023-12-07T12:36:04;60.00;;;31.05;;
22320;SDS011;11328;53.928;18.522;2023-12-07T12:38:33;62.25;;;31.35;;
22320;SDS011;11328;53.928;18.522;2023-12-07T12:41:09;63.88;;;31.40;;
22320;SDS011;11328;53.928;18.522;2023-12-07T12:43:37;62.33;;;29.85;;
22320;SDS011;11328;53.928;18.522;2023-12-07T12:46:04;61.42;;;30.55;;
22320;SDS011;11328;53.928;18.522;2023-12-07T12:48:32;58.97;;;28.60;;
22320;SDS011;11328;53.928;18.522;2023-12-07T12:51:12;58.13;;;29.52;;
22320;SDS011;11328;53.928;18.522;2023-12-07T12:53:41;62.35;;;30.40;;
22320;SDS011;11328;53.928;18.522;2023-12-07T12:56:17;56.50;;;29.42;;
22320;SDS011;11328;53.928;18.522;2023-12-07T12:58:49;63.40;;;30.73;;
22320;SDS011;11328;53.928;18.522;2023-12-07T13:01:18;66.03;;;33.13;;
22320;SDS011;11328;53.928;18.522;2023-12-07T13:03:49;69.75;;;35.58;;
22320;SDS011;11328;53.928;18.522;2023-12-07T13:06:17;65.78;;;32.60;;
22320;SDS011;11328;53.928;18.522;2023-12-07T13:08:44;65.63;;;32.92;;
22320;SDS011;11328;53.928;18.522;2023-12-07T13:11:14;70.03;;;35.70;;
22320;SDS011;11328;53.928;18.522;2023-12-07T13:13:45;70.95;;;35.75;;
22320;SDS011;11328;53.928;18.522;2023-12-07T13:16:14;68.78;;;34.60;;
22320;SDS011;11328;53.928;18.522;2023-12-07T13:18:46;62.10;;;31.80;;
22320;SDS011;11328;53.928;18.522;2023-12-07T13:21:13;58.00;;;29.75;;
22320;SDS011;11328;53.928;18.522;2023-12-07T13:23:42;55.00;;;27.25;;
22320;SDS011;11328;53.928;18.522;2023-12-07T13:26:13;56.50;;;27.80;;
22320;SDS011;11328;53.928;18.522;2023-12-07T13:28:40;56.78;;;27.73;;
22320;SDS011;11328;53.928;18.522;2023-12-07T13:31:08;55.85;;;28.15;;
22320;SDS011;11328;53.928;18.522;2023-12-07T13:33:35;57.78;;;28.58;;
22320;SDS011;11328;53.928;18.522;2023-12-07T13:38:46;52.53;;;27.17;;
22320;SDS011;11328;53.928;18.522;2023-12-07T13:41:13;58.13;;;29.23;;
22320;SDS011;11328;53.928;18.522;2023-12-07T13:43:40;65.78;;;31.20;;
22320;SDS011;11328;53.928;18.522;2023-12-07T13:46:08;66.88;;;31.90;;
22320;SDS011;11328;53.928;18.522;2023-12-07T13:48:37;59.97;;;30.92;;
22320;SDS011;11328;53.928;18.522;2023-12-07T13:51:04;61.20;;;29.55;;
22320;SDS011;11328;53.928;18.522;2023-12-07T13:53:32;56.42;;;28.33;;
22320;SDS011;11328;53.928;18.522;2023-12-07T13:56:00;59.00;;;28.80;;
22320;SDS011;11328;53.928;18.522;2023-12-07T13:58:30;62.70;;;29.48;;
22320;SDS011;11328;53.928;18.522;2023-12-07T14:00:58;58.85;;;29.10;;
22320;SDS011;11328;53.928;18.522;2023-12-07T14:03:25;63.05;;;30.02;;
22320;SDS011;11328;53.928;18.522;2023-12-07T14:05:52;64.38;;;31.58;;
22320;SDS011;11328;53.928;18.522;2023-12-07T14:08:19;61.55;;;29.73;;
22320;SDS011;11328;53.928;18.522;2023-12-07T14:10:46;61.13;;;30.25;;
22320;SDS011;11328;53.928;18.522;2023-12-07T14:13:14;60.47;;;29.73;;
22320;SDS011;11328;53.928;18.522;2023-12-07T14:15:44;64.78;;;30.92;;
22320;SDS011;11328;53.928;18.522;2023-12-07T14:18:11;63.00;;;30.80;;
22320;SDS011;11328;53.928;18.522;2023-12-07T14:20:41;60.28;;;28.92;;
22320;SDS011;11328;53.928;18.522;2023-12-07T14:23:28;57.15;;;29.45;;
22320;SDS011;11328;53.928;18.522;2023-12-07T14:25:56;54.55;;;28.63;;
22320;SDS011;11328;53.928;18.522;2023-12-07T14:28:30;60.63;;;29.95;;